Time;durP1;ratioP1;P1;durP2;ratioP2;P2;SDS_P1;SDS_P2;PMS_P1;PMS_P2;Temp;Humidity;BMP_temperature;BMP_pressure;BME280_temperature;BME280_humidity;BME280_pressure;Samples;Min_cycle;Max_cycle;Signal;HPM_P1;HPM_P2
2022/06/04 00:02:53;;;;;;;9.70;5.95;;;18.90;99.90;;;;;;5035565;28;20119;-80
2022/06/04 00:17:43;;;;;;;11.27;5.80;;;18.90;99.90;;;;;;5079669;27;20591;-81
2022/06/04 00:20:53;;;;;;;9.95;5.60;;;18.90;99.90;;;;;;5115295;27;20149;-81
2022/06/04 00:26:45;;;;;;;19.98;6.70;;;18.80;99.90;;;;;;5115811;27;20545;-81
2022/06/04 00:29:30;;;;;;;10.32;5.72;;;18.80;99.90;;;;;;5113023;27;20040;-81
2022/06/04 00:33:03;;;;;;;11.55;6.93;;;19.00;99.90;;;;;;5120123;27;20579;-81
2022/06/04 00:36:01;;;;;;;;;;;;;;;;;;;;;
2022/06/04 00:45:15;;;;;;;12.18;6.85;;;18.70;99.90;;;;;;5098032;27;20046;-82
2022/06/04 00:48:06;;;;;;;10.38;6.63;;;18.70;99.90;;;;;;5101656;27;20547;-81
2022/06/04 00:51:24;;;;;;;11.25;6.80;;;18.90;99.90;;;;;;5102990;27;20083;-81
2022/06/04 00:54:29;;;;;;;13.38;7.30;;;18.70;99.90;;;;;;5024115;28;20062;-81
2022/06/04 00:57:55;;;;;;;11.90;6.82;;;18.90;99.90;;;;;;5060959;27;20135;-82
2022/06/04 01:00:50;;;;;;;13.70;7.15;;;18.80;99.90;;;;;;5054520;28;20186;-81
2022/06/04 01:03:59;;;;;;;22.35;9.10;;;18.90;99.90;;;;;;5112426;27;20056;-81
2022/06/04 01:10:11;;;;;;;12.30;8.93;;;19.20;99.90;;;;;;5047146;27;21015;-81
2022/06/04 01:13:02;;;;;;;14.93;9.38;;;19.00;99.90;;;;;;5114589;27;20071;-81
2022/06/04 01:16:01;;;;;;;13.60;9.32;;;19.00;99.90;;;;;;5133292;27;20039;-81
2022/06/04 01:19:21;;;;;;;16.02;9.63;;;19.30;99.90;;;;;;5108055;27;20056;-81
2022/06/04 01:22:22;;;;;;;14.90;11.00;;;19.00;99.90;;;;;;5101071;27;20044;-82
2022/06/04 01:28:37;;;;;;;22.20;12.57;;;19.10;99.90;;;;;;5103611;27;20126;-82
2022/06/04 01:31:15;;;;;;;20.17;12.88;;;19.00;99.90;;;;;;5100286;27;20150;-82
2022/06/04 01:37:27;;;;;;;22.95;14.77;;;19.00;99.90;;;;;;5105606;27;20045;-82
2022/06/04 01:43:24;;;;;;;24.73;15.60;;;19.00;99.90;;;;;;5106106;27;20040;-81
2022/06/04 01:46:11;;;;;;;22.50;15.38;;;18.90;99.90;;;;;;5103981;27;20035;-81
2022/06/04 01:49:04;;;;;;;21.88;15.73;;;19.10;99.90;;;;;;5102568;27;20127;-80
2022/06/04 01:52:01;;;;;;;21.40;11.10;;;19.10;99.90;;;;;;5110579;27;20170;-81
2022/06/04 01:58:24;;;;;;;11.73;7.22;;;19.00;99.90;;;;;;5115828;27;20070;-81
2022/06/04 02:01:38;;;;;;;9.40;6.00;;;18.90;99.90;;;;;;5121239;27;20424;-81
2022/06/04 02:04:52;;;;;;;8.02;3.40;;;18.90;99.90;;;;;;5124255;27;20103;-82
2022/06/04 02:07:55;;;;;;;;;;;;;;;;;;;;;
2022/06/04 02:10:40;;;;;;;6.32;2.50;;;19.40;99.90;;;;;;5121575;27;40331;-81
2022/06/04 02:13:09;;;;;;;6.20;2.28;;;18.80;99.90;;;;;;5117335;27;20050;-81
2022/06/04 02:16:08;;;;;;;4.63;1.88;;;18.70;99.90;;;;;;5103869;27;20036;-81
2022/06/04 02:18:37;;;;;;;3.15;1.98;;;18.80;99.90;;;;;;5102885;27;20190;-81
2022/06/04 02:21:06;;;;;;;3.45;2.05;;;19.20;99.90;;;;;;5107111;27;20032;-82
2022/06/04 02:23:36;;;;;;;4.63;2.10;;;18.90;99.90;;;;;;5102235;27;20131;-82
2022/06/04 02:26:02;;;;;;;3.65;1.83;;;18.90;99.90;;;;;;5100826;27;20035;-82
2022/06/04 02:28:39;;;;;;;3.53;1.80;;;18.90;99.90;;;;;;5102696;27;20048;-82
2022/06/04 02:31:36;;;;;;;5.22;2.00;;;18.90;99.90;;;;;;5101644;27;20073;-81
2022/06/04 02:34:13;;;;;;;3.08;1.80;;;18.90;99.90;;;;;;5096606;27;20075;-82
2022/06/04 02:36:55;;;;;;;3.05;1.60;;;18.90;99.90;;;;;;5104253;27;20123;-81
2022/06/04 02:39:34;;;;;;;2.90;1.48;;;18.90;99.90;;;;;;5119152;27;20048;-81
2022/06/04 02:42:12;;;;;;;3.33;1.30;;;19.00;99.90;;;;;;5088159;27;20660;-82
2022/06/04 02:45:14;;;;;;;3.80;1.83;;;19.00;99.90;;;;;;5102485;27;20036;-81
2022/06/04 02:47:54;;;;;;;9.90;2.00;;;18.80;99.90;;;;;;5102520;27;20125;-81
2022/06/04 02:50:35;;;;;;;7.00;2.85;;;18.90;99.90;;;;;;5094095;27;20040;-82
2022/06/04 02:53:15;;;;;;;4.63;3.00;;;18.90;99.90;;;;;;5099912;27;20117;-81
2022/06/04 02:56:14;;;;;;;;;;;;;;;;;;;;;
2022/06/04 02:58:43;;;;;;;5.38;3.20;;;18.90;99.90;;;;;;5101124;27;45117;-81
2022/06/04 03:01:14;;;;;;;4.35;2.97;;;18.90;99.90;;;;;;5099670;27;20042;-81
2022/06/04 03:03:43;;;;;;;3.45;2.42;;;18.90;99.90;;;;;;5101479;27;20040;-81
2022/06/04 03:06:30;;;;;;;5.20;3.22;;;18.80;99.90;;;;;;5096966;27;20675;-81
2022/06/04 03:09:00;;;;;;;5.88;4.80;;;18.60;99.90;;;;;;5101602;27;20553;-81
2022/06/04 03:11:29;;;;;;;7.78;3.83;;;18.70;99.90;;;;;;5086513;27;20468;-81
2022/06/04 03:13:58;;;;;;;8.13;3.97;;;18.70;99.90;;;;;;5102058;27;20063;-82
2022/06/04 03:16:36;;;;;;;5.38;2.50;;;18.60;99.90;;;;;;5098961;27;20506;-82
2022/06/04 03:19:09;;;;;;;4.88;2.20;;;18.60;99.90;;;;;;5115199;27;20048;-81
2022/06/04 03:21:37;;;;;;;10.40;2.58;;;18.50;99.90;;;;;;5098903;27;20694;-82
2022/06/04 03:24:04;;;;;;;4.57;2.10;;;18.50;99.90;;;;;;5100040;27;20047;-82
2022/06/04 03:26:33;;;;;;;4.85;2.08;;;18.30;99.90;;;;;;5098036;27;20426;-81
2022/06/04 03:28:59;;;;;;;5.63;2.20;;;18.50;99.90;;;;;;5116562;27;20055;-81
2022/06/04 03:31:28;;;;;;;3.97;1.70;;;18.20;99.90;;;;;;5100111;27;20079;-82
2022/06/04 03:33:59;;;;;;;4.13;2.45;;;18.20;99.90;;;;;;5099680;27;20039;-82
2022/06/04 03:36:33;;;;;;;2.63;1.58;;;18.20;99.90;;;;;;5099222;27;22379;-82
2022/06/04 03:39:00;;;;;;;3.13;1.70;;;18.10;99.90;;;;;;5102244;27;20052;-82
2022/06/04 03:41:28;;;;;;;6.47;1.70;;;18.10;99.90;;;;;;5102643;27;20036;-82
2022/06/04 03:43:54;;;;;;;3.30;1.33;;;18.10;99.90;;;;;;5098236;27;20055;-82
2022/06/04 03:46:25;;;;;;;2.85;2.22;;;18.00;99.90;;;;;;5102579;27;20664;-82
2022/06/04 03:48:52;;;;;;;5.80;1.70;;;18.10;99.90;;;;;;5099364;27;20049;-81
2022/06/04 03:51:18;;;;;;;2.38;1.30;;;18.10;99.90;;;;;;5101924;27;20047;-82
2022/06/04 03:53:44;;;;;;;3.88;1.60;;;18.10;99.90;;;;;;5102035;27;20040;-82
2022/06/04 03:56:10;;;;;;;1.75;1.00;;;18.10;99.90;;;;;;5101183;27;20044;-81
2022/06/04 03:58:36;;;;;;;3.03;2.03;;;18.10;99.90;;;;;;5098079;27;20035;-82
2022/06/04 04:01:13;;;;;;;4.40;1.50;;;18.10;99.90;;;;;;5102466;27;21139;-82
2022/06/04 04:03:39;;;;;;;2.60;1.50;;;18.10;99.90;;;;;;5097426;27;20049;-82
2022/06/04 04:06:05;;;;;;;2.05;1.20;;;17.80;99.90;;;;;;5101630;27;20047;-81
2022/06/04 04:08:34;;;;;;;2.30;1.20;;;18.10;99.90;;;;;;5099704;27;20047;-82
2022/06/04 04:11:02;;;;;;;1.73;1.23;;;18.10;99.90;;;;;;5101054;27;22411;-82
2022/06/04 04:13:27;;;;;;;4.53;1.23;;;18.10;99.90;;;;;;5099887;27;20047;-82
2022/06/04 04:15:53;;;;;;;2.00;1.17;;;18.10;99.90;;;;;;5099555;27;20067;-82
2022/06/04 04:18:22;;;;;;;4.07;1.30;;;18.10;99.90;;;;;;5097433;27;20044;-82
2022/06/04 04:20:50;;;;;;;3.65;1.52;;;18.10;99.90;;;;;;5087002;27;20048;-82
2022/06/04 04:23:16;;;;;;;1.70;1.40;;;18.10;99.90;;;;;;5115018;27;20237;-82
2022/06/04 04:25:44;;;;;;;3.15;1.40;;;18.10;99.90;;;;;;5100414;27;20044;-82
2022/06/04 04:28:11;;;;;;;1.77;1.13;;;18.20;99.90;;;;;;5115451;27;20050;-82
2022/06/04 04:30:40;;;;;;;2.65;1.55;;;18.30;99.90;;;;;;5096856;27;20070;-82
2022/06/04 04:33:06;;;;;;;3.53;1.30;;;18.20;99.90;;;;;;5099184;27;20501;-83
2022/06/04 04:35:34;;;;;;;9.80;2.72;;;18.20;99.90;;;;;;5098633;27;20032;-82
2022/06/04 04:38:00;;;;;;;2.50;1.00;;;18.20;99.90;;;;;;5098477;27;20040;-82
2022/06/04 04:40:28;;;;;;;2.75;1.35;;;18.10;99.90;;;;;;5118208;27;20133;-82
2022/06/04 04:42:55;;;;;;;2.42;1.20;;;18.10;99.90;;;;;;5097242;27;20031;-82
2022/06/04 04:45:25;;;;;;;3.53;1.17;;;18.10;99.90;;;;;;5096122;27;20199;-82
2022/06/04 04:47:52;;;;;;;3.65;1.20;;;18.20;99.90;;;;;;5094917;27;20525;-82
2022/06/04 04:50:26;;;;;;;2.05;1.48;;;18.20;99.90;;;;;;5098142;27;20040;-82
2022/06/04 04:52:53;;;;;;;1.52;1.10;;;18.20;99.90;;;;;;5084884;27;20517;-81
2022/06/04 04:55:25;;;;;;;1.73;1.08;;;18.30;99.90;;;;;;5103848;27;20048;-81
2022/06/04 04:57:50;;;;;;;;;;;18.30;99.90;;;;;;5101247;27;20433;-81
2022/06/04 05:00:17;;;;;;;5.80;1.95;;;18.20;99.90;;;;;;5101734;27;20384;-82
2022/06/04 05:02:43;;;;;;;10.32;2.85;;;18.10;99.90;;;;;;5102511;27;20086;-81
2022/06/04 05:05:11;;;;;;;5.95;2.20;;;17.90;99.90;;;;;;5102673;27;20043;-80
2022/06/04 05:07:38;;;;;;;1.98;1.13;;;17.70;99.90;;;;;;5102370;27;20140;-81
2022/06/04 05:10:04;;;;;;;7.30;1.60;;;17.50;99.90;;;;;;5104496;27;20532;-80
2022/06/04 05:12:30;;;;;;;3.25;1.50;;;17.40;99.90;;;;;;5102379;27;20036;-79
2022/06/04 05:14:56;;;;;;;2.00;1.23;;;17.80;99.90;;;;;;5102547;27;20044;-79
2022/06/04 05:17:22;;;;;;;5.80;1.60;;;17.30;99.90;;;;;;5103498;27;20078;-78
2022/06/04 05:19:48;;;;;;;1.98;1.23;;;17.40;99.90;;;;;;5104510;27;20047;-80
2022/06/04 05:22:14;;;;;;;2.63;1.88;;;17.40;99.90;;;;;;5104690;27;20074;-80
2022/06/04 05:24:39;;;;;;;6.13;2.38;;;17.50;99.90;;;;;;5103374;27;20046;-78
2022/06/04 05:27:06;;;;;;;2.40;1.52;;;17.60;99.90;;;;;;5103488;27;20098;-79
2022/06/04 05:29:33;;;;;;;4.68;1.48;;;17.60;99.90;;;;;;5097940;27;20041;-79
2022/06/04 05:31:59;;;;;;;3.40;1.73;;;17.60;99.90;;;;;;5104054;27;20055;-79
2022/06/04 05:34:26;;;;;;;3.80;2.20;;;17.60;99.90;;;;;;5102919;27;20052;-79
2022/06/04 05:36:55;;;;;;;3.13;1.80;;;17.70;99.90;;;;;;5099640;27;20121;-79
2022/06/04 05:39:22;;;;;;;4.22;2.22;;;17.70;99.90;;;;;;5103350;27;20141;-79
2022/06/04 05:41:49;;;;;;;4.43;1.88;;;17.60;99.90;;;;;;5101041;27;20046;-79
2022/06/04 05:44:15;;;;;;;4.03;2.17;;;17.60;99.90;;;;;;5102630;27;20090;-79
2022/06/04 05:46:42;;;;;;;3.97;1.90;;;17.70;99.90;;;;;;5103139;27;20044;-79
2022/06/04 05:49:11;;;;;;;7.30;1.95;;;17.60;99.90;;;;;;5121761;27;20179;-79
2022/06/04 05:51:38;;;;;;;2.85;1.90;;;17.60;99.90;;;;;;5104063;27;20090;-80
2022/06/04 05:54:04;;;;;;;3.75;2.10;;;17.70;99.90;;;;;;5102039;27;20076;-79
2022/06/04 05:56:32;;;;;;;2.45;1.60;;;17.70;99.90;;;;;;5101711;27;20621;-79
2022/06/04 05:59:02;;;;;;;2.28;1.60;;;17.80;99.90;;;;;;5101872;27;20121;-79
2022/06/04 06:01:31;;;;;;;2.33;1.40;;;17.80;99.90;;;;;;5099885;27;20048;-80
2022/06/04 06:04:00;;;;;;;2.70;1.20;;;17.70;99.90;;;;;;5084643;27;20070;-79
2022/06/04 06:06:29;;;;;;;3.30;1.58;;;17.60;99.90;;;;;;5101472;27;20040;-79
2022/06/04 06:08:56;;;;;;;2.67;1.60;;;17.70;99.90;;;;;;5100841;27;20059;-80
2022/06/04 06:11:23;;;;;;;2.08;1.63;;;17.70;99.90;;;;;;5102880;27;20093;-80
2022/06/04 06:13:51;;;;;;;2.38;1.50;;;17.80;99.90;;;;;;5102837;27;20046;-81
2022/06/04 06:16:19;;;;;;;3.72;1.67;;;17.90;99.90;;;;;;5101146;27;20040;-80
2022/06/04 06:18:45;;;;;;;3.10;1.60;;;18.40;99.90;;;;;;5100890;27;20413;-80
2022/06/04 06:21:14;;;;;;;7.00;3.10;;;18.30;99.90;;;;;;5101752;27;20063;-80
2022/06/04 06:23:40;;;;;;;2.97;1.80;;;18.40;99.90;;;;;;5117582;27;20074;-80
2022/06/04 06:26:08;;;;;;;4.82;2.80;;;18.60;99.90;;;;;;5101667;27;20043;-80
2022/06/04 06:28:35;;;;;;;3.63;1.83;;;18.60;99.90;;;;;;5099389;27;20458;-80
2022/06/04 06:31:02;;;;;;;6.03;2.45;;;18.60;99.90;;;;;;5099989;27;20047;-79
2022/06/04 06:33:29;;;;;;;4.82;1.77;;;18.50;99.90;;;;;;5101377;27;20040;-80
2022/06/04 06:35:59;;;;;;;4.88;1.60;;;18.50;99.90;;;;;;5103477;27;20555;-80
2022/06/04 06:38:26;;;;;;;2.25;1.65;;;18.50;99.90;;;;;;5098837;27;20036;-80
2022/06/04 06:40:57;;;;;;;3.40;2.40;;;18.60;99.90;;;;;;5099866;27;20603;-80
2022/06/04 06:43:31;;;;;;;4.67;2.20;;;18.60;99.90;;;;;;5101959;27;20134;-80
2022/06/04 06:46:11;;;;;;;4.43;1.63;;;18.70;99.90;;;;;;5100330;27;20040;-80
2022/06/04 06:48:40;;;;;;;3.55;1.67;;;18.70;99.90;;;;;;5101433;27;20044;-83
2022/06/04 06:51:18;;;;;;;4.50;1.98;;;18.80;99.90;;;;;;5094747;27;20052;-81
2022/06/04 06:53:44;;;;;;;3.33;1.70;;;19.00;99.90;;;;;;5099658;27;20043;-81
2022/06/04 06:56:15;;;;;;;3.45;1.70;;;19.00;99.90;;;;;;5099020;27;20044;-78
2022/06/04 06:58:41;;;;;;;3.85;1.95;;;19.00;99.90;;;;;;5103945;27;20036;-79
2022/06/04 07:01:08;;;;;;;2.85;1.88;;;19.00;99.90;;;;;;5103396;27;20541;-79
2022/06/04 07:03:37;;;;;;;3.65;2.55;;;19.10;99.90;;;;;;5102087;27;20122;-79
2022/06/04 07:06:13;;;;;;;3.30;1.92;;;19.10;99.90;;;;;;5103383;27;20032;-79
2022/06/04 07:08:41;;;;;;;3.50;2.28;;;19.10;99.90;;;;;;5101812;27;20050;-80
2022/06/04 07:11:07;;;;;;;2.33;1.48;;;19.10;99.90;;;;;;5102913;27;20078;-83
2022/06/04 07:13:32;;;;;;;2.88;1.88;;;19.10;99.90;;;;;;5098412;27;20149;-79
2022/06/04 07:15:58;;;;;;;2.92;1.60;;;19.20;99.90;;;;;;5102353;27;20132;-80
2022/06/04 07:18:24;;;;;;;2.28;1.60;;;19.20;99.90;;;;;;5102034;27;20047;-81
2022/06/04 07:20:50;;;;;;;3.17;1.20;;;19.30;99.90;;;;;;5104600;27;20813;-80
2022/06/04 07:23:19;;;;;;;1.77;1.48;;;19.30;99.90;;;;;;5103850;27;20048;-78
2022/06/04 07:25:46;;;;;;;3.17;2.25;;;19.30;99.90;;;;;;5103839;27;20055;-79
2022/06/04 07:28:15;;;;;;;4.05;1.50;;;19.40;99.90;;;;;;5097852;27;20044;-79
2022/06/04 07:30:41;;;;;;;4.32;1.15;;;19.30;99.90;;;;;;5100246;27;20047;-78
2022/06/04 07:33:07;;;;;;;4.40;1.35;;;19.20;99.90;;;;;;5101160;27;20067;-85
2022/06/04 07:35:33;;;;;;;2.45;1.20;;;19.10;99.90;;;;;;5103791;27;20040;-78
2022/06/04 07:37:59;;;;;;;1.95;1.20;;;19.10;99.90;;;;;;5102917;27;20032;-78
2022/06/04 07:40:25;;;;;;;2.15;1.27;;;19.00;99.90;;;;;;5101425;27;20538;-79
2022/06/04 07:42:50;;;;;;;1.77;1.05;;;19.00;99.90;;;;;;5104965;27;20047;-81
2022/06/04 07:45:16;;;;;;;3.35;1.20;;;19.00;99.90;;;;;;5087392;27;20074;-79
2022/06/04 07:47:44;;;;;;;1.95;1.27;;;19.00;99.90;;;;;;5118386;27;20044;-79
2022/06/04 07:50:12;;;;;;;2.03;1.17;;;19.00;99.90;;;;;;5102881;27;20055;-84
2022/06/04 07:52:38;;;;;;;1.90;1.20;;;19.00;99.90;;;;;;5101103;27;20040;-78
2022/06/04 07:55:06;;;;;;;3.38;1.52;;;19.00;99.90;;;;;;5099311;27;20992;-78
2022/06/04 07:57:33;;;;;;;1.83;1.58;;;19.10;99.90;;;;;;5085858;27;20046;-78
2022/06/04 07:59:59;;;;;;;2.15;1.38;;;19.50;99.90;;;;;;5118544;27;20040;-77
2022/06/04 08:02:25;;;;;;;3.22;1.60;;;19.20;99.90;;;;;;5099710;27;20035;-78
2022/06/04 08:04:53;;;;;;;3.90;2.50;;;19.30;99.90;;;;;;5104811;27;20047;-78
2022/06/04 08:07:20;;;;;;;1.80;0.93;;;19.30;99.90;;;;;;5101313;27;20139;-77
2022/06/04 08:09:48;;;;;;;3.35;1.60;;;19.40;99.90;;;;;;5119091;27;20113;-78
2022/06/04 08:12:14;;;;;;;2.22;1.63;;;19.40;99.90;;;;;;5098112;27;20035;-78
2022/06/04 08:14:40;;;;;;;2.58;1.73;;;19.40;99.90;;;;;;5096258;27;20079;-78
2022/06/04 08:17:06;;;;;;;1.75;1.25;;;19.50;99.90;;;;;;5098397;27;20044;-77
2022/06/04 08:19:32;;;;;;;2.50;1.58;;;19.70;99.90;;;;;;5099332;27;20044;-78
2022/06/04 08:21:58;;;;;;;4.55;1.67;;;19.80;99.90;;;;;;5100156;27;20769;-79
2022/06/04 08:24:25;;;;;;;2.55;1.75;;;20.00;99.90;;;;;;5097122;27;20044;-79
2022/06/04 08:26:59;;;;;;;6.60;1.90;;;20.00;99.90;;;;;;5102189;27;20154;-78
2022/06/04 08:29:27;;;;;;;4.45;1.85;;;20.10;99.90;;;;;;5094954;27;20553;-78
2022/06/04 08:31:53;;;;;;;3.65;2.00;;;20.20;99.90;;;;;;5100991;27;20044;-78
2022/06/04 08:34:19;;;;;;;3.47;2.13;;;20.20;99.90;;;;;;5102844;27;20032;-79
2022/06/04 08:36:45;;;;;;;4.25;2.67;;;20.20;99.90;;;;;;5101098;27;20537;-79
2022/06/04 08:39:12;;;;;;;2.85;2.05;;;20.30;99.90;;;;;;5100959;27;20096;-79
2022/06/04 08:41:40;;;;;;;5.28;2.05;;;20.40;99.90;;;;;;5098236;27;20068;-79
2022/06/04 08:44:33;;;;;;;4.38;2.80;;;20.50;99.90;;;;;;5098347;27;20040;-79
2022/06/04 08:47:02;;;;;;;3.05;2.03;;;20.60;99.90;;;;;;5086164;27;20062;-80
2022/06/04 08:49:35;;;;;;;3.33;2.63;;;20.70;99.90;;;;;;5099708;27;20040;-79
2022/06/04 08:52:10;;;;;;;5.90;2.22;;;20.60;99.90;;;;;;5102930;27;21068;-79
2022/06/04 08:57:33;;;;;;;7.20;2.47;;;20.50;99.90;;;;;;5101666;27;20290;-78
2022/06/04 09:00:19;;;;;;;4.90;3.30;;;20.40;99.90;;;;;;5107536;27;20044;-79
2022/06/04 09:03:07;;;;;;;3.95;2.63;;;20.30;99.90;;;;;;5105135;27;20578;-79
2022/06/04 09:06:11;;;;;;;5.65;3.00;;;20.30;99.90;;;;;;5104552;27;20051;-79
2022/06/04 09:08:49;;;;;;;3.50;2.60;;;20.20;99.90;;;;;;5106836;27;20529;-79
2022/06/04 09:11:43;;;;;;;6.25;2.75;;;20.20;99.90;;;;;;5103560;27;20048;-79
2022/06/04 09:14:41;;;;;;;3.00;1.98;;;20.20;99.90;;;;;;5101300;27;20058;-80
2022/06/04 09:17:18;;;;;;;2.80;1.90;;;20.30;99.90;;;;;;5106645;27;20540;-79
2022/06/04 09:19:51;;;;;;;5.93;2.25;;;20.20;99.90;;;;;;5105083;27;20097;-79
2022/06/04 09:22:23;;;;;;;5.10;2.05;;;20.30;99.90;;;;;;5097699;27;20127;-78
2022/06/04 09:24:49;;;;;;;5.22;1.98;;;20.30;99.90;;;;;;5106229;27;20035;-79
2022/06/04 09:27:40;;;;;;;2.90;1.80;;;20.30;99.90;;;;;;5097983;27;20050;-79
2022/06/04 09:30:11;;;;;;;3.60;1.70;;;20.30;99.90;;;;;;5101098;27;20048;-79
2022/06/04 09:33:00;;;;;;;2.90;1.67;;;20.30;99.90;;;;;;5121444;27;20178;-79
2022/06/04 09:35:31;;;;;;;2.38;1.75;;;20.40;99.90;;;;;;5101932;27;20063;-78
2022/06/04 09:37:57;;;;;;;4.93;2.55;;;20.40;99.90;;;;;;5102558;27;20047;-80
2022/06/04 09:40:29;;;;;;;2.47;1.65;;;20.40;99.90;;;;;;5096070;27;20080;-81
2022/06/04 09:43:20;;;;;;;;;;;20.50;99.90;;;;;;5105165;27;20046;-81
2022/06/04 09:45:56;;;;;;;4.45;2.40;;;20.50;99.90;;;;;;5096544;27;19924;-79
2022/06/04 09:48:31;;;;;;;3.83;1.77;;;20.50;99.90;;;;;;5101565;27;20052;-80
2022/06/04 09:51:01;;;;;;;4.88;2.10;;;20.50;99.90;;;;;;5106038;27;20040;-80
2022/06/04 09:53:30;;;;;;;2.80;1.70;;;20.50;99.90;;;;;;5105911;27;20091;-80
2022/06/04 09:56:22;;;;;;;4.15;2.35;;;20.60;99.90;;;;;;5105844;27;20048;-80
2022/06/04 09:58:49;;;;;;;3.00;1.90;;;20.60;99.90;;;;;;5104631;27;20119;-80
2022/06/04 10:01:18;;;;;;;3.15;1.90;;;20.70;99.90;;;;;;5108367;27;20338;-80
2022/06/04 10:03:57;;;;;;;2.70;2.08;;;20.70;99.90;;;;;;5105738;27;20040;-80
2022/06/04 10:06:28;;;;;;;3.47;2.22;;;20.80;99.90;;;;;;5105656;27;20568;-80
2022/06/04 10:11:52;;;;;;;2.72;1.95;;;20.80;99.90;;;;;;5107686;27;20101;-81
2022/06/04 10:14:38;;;;;;;4.60;2.60;;;20.90;99.90;;;;;;5106890;27;20123;-81
2022/06/04 10:17:20;;;;;;;6.13;2.28;;;20.90;99.90;;;;;;5090822;27;20055;-80
2022/06/04 10:19:54;;;;;;;3.03;1.92;;;21.00;99.90;;;;;;5103375;27;20035;-80
2022/06/04 10:22:20;;;;;;;2.58;2.00;;;21.00;99.90;;;;;;5107088;27;20138;-80
2022/06/04 10:24:56;;;;;;;3.20;2.33;;;21.10;99.90;;;;;;5106223;27;20040;-81
2022/06/04 10:27:32;;;;;;;3.45;2.40;;;21.10;99.90;;;;;;5107732;27;20052;-80
2022/06/04 10:30:27;;;;;;;2.75;1.92;;;21.20;99.90;;;;;;5108237;27;20039;-81
2022/06/04 10:33:17;;;;;;;4.28;2.05;;;21.30;99.90;;;;;;5106776;27;20830;-80
2022/06/04 10:36:21;;;;;;;5.40;2.50;;;21.40;99.90;;;;;;5114920;27;20036;-80
2022/06/04 10:38:46;;;;;;;4.80;3.13;;;21.40;99.90;;;;;;5130561;27;20039;-81
2022/06/04 10:41:19;;;;;;;8.60;2.35;;;21.40;99.90;;;;;;5111177;27;20624;-81
2022/06/04 10:44:03;;;;;;;3.55;2.10;;;21.40;99.90;;;;;;5112124;27;20126;-80
2022/06/04 10:46:37;;;;;;;4.72;2.45;;;21.40;99.90;;;;;;5107620;27;20551;-80
2022/06/04 10:49:27;;;;;;;5.15;2.88;;;21.40;99.90;;;;;;5105829;27;20044;-80
2022/06/04 10:52:11;;;;;;;4.65;2.42;;;21.40;99.90;;;;;;5087824;27;20051;-80
2022/06/04 10:54:43;;;;;;;4.70;2.90;;;21.50;99.90;;;;;;5106845;27;20053;-80
2022/06/04 10:57:18;;;;;;;4.13;3.03;;;21.50;99.90;;;;;;5103489;27;20154;-81
2022/06/04 10:59:52;;;;;;;5.00;2.28;;;21.60;99.90;;;;;;5106909;27;20032;-80
2022/06/04 11:02:24;;;;;;;3.90;2.42;;;21.70;99.90;;;;;;5105628;27;21038;-80
2022/06/04 11:04:53;;;;;;;4.20;2.60;;;21.70;99.90;;;;;;5088837;27;20279;-81
2022/06/04 11:07:37;;;;;;;4.60;2.65;;;21.80;99.90;;;;;;5105007;27;20856;-80
2022/06/04 11:10:12;;;;;;;4.38;2.72;;;21.80;99.90;;;;;;5091099;27;20125;-81
2022/06/04 11:13:02;;;;;;;4.82;3.05;;;21.90;99.90;;;;;;5103789;27;20040;-80
2022/06/04 11:15:51;;;;;;;5.97;2.97;;;22.10;99.90;;;;;;5106589;27;20071;-80
2022/06/04 11:18:27;;;;;;;3.20;2.47;;;22.30;99.90;;;;;;5102482;27;20051;-80
2022/06/04 11:21:01;;;;;;;4.13;2.83;;;22.40;99.90;;;;;;5119463;27;20048;-81
2022/06/04 11:23:49;;;;;;;5.72;2.85;;;22.50;99.90;;;;;;5104048;27;20043;-80
2022/06/04 11:26:30;;;;;;;5.80;3.20;;;22.60;99.90;;;;;;5121678;27;20036;-80
2022/06/04 11:28:58;;;;;;;7.57;3.22;;;22.50;99.90;;;;;;5105843;27;20048;-80
2022/06/04 11:31:59;;;;;;;5.30;2.95;;;22.50;99.90;;;;;;5101844;27;20554;-81
2022/06/04 11:34:27;;;;;;;4.80;2.70;;;22.60;99.90;;;;;;5120619;27;20154;-81
2022/06/04 11:37:02;;;;;;;3.78;2.67;;;22.80;99.90;;;;;;5103802;27;20079;-81
2022/06/04 11:40:04;;;;;;;3.20;2.55;;;22.90;99.90;;;;;;5105494;27;20040;-81
2022/06/04 11:42:55;;;;;;;4.60;3.03;;;23.10;99.90;;;;;;5087985;27;20051;-81
2022/06/04 11:45:55;;;;;;;3.50;2.35;;;23.20;99.90;;;;;;5100971;27;20043;-80
2022/06/04 11:48:45;;;;;;;3.88;3.17;;;23.40;99.90;;;;;;5083441;27;20398;-85
2022/06/04 11:51:14;;;;;;;4.47;2.58;;;23.70;99.90;;;;;;5089430;27;20257;-82
2022/06/04 11:54:14;;;;;;;6.03;2.92;;;24.00;99.90;;;;;;5104304;27;20044;-81
2022/06/04 11:56:58;;;;;;;18.70;4.03;;;24.20;99.90;;;;;;5088270;27;20107;-80
2022/06/04 11:59:42;;;;;;;4.07;2.88;;;24.10;99.90;;;;;;5103150;27;20051;-80
2022/06/04 12:02:26;;;;;;;3.85;3.22;;;24.00;99.90;;;;;;5103282;27;20817;-81
2022/06/04 12:05:32;;;;;;;3.88;2.92;;;23.90;99.90;;;;;;5102096;27;20102;-82
2022/06/04 12:08:04;;;;;;;4.05;2.80;;;23.70;99.90;;;;;;5103533;27;20047;-81
2022/06/04 12:10:45;;;;;;;4.72;3.53;;;23.60;99.90;;;;;;5103725;27;20917;-83
2022/06/04 12:13:44;;;;;;;6.55;4.00;;;23.50;99.90;;;;;;5119017;27;20051;-79
2022/06/04 12:16:18;;;;;;;5.47;2.70;;;23.50;99.90;;;;;;5085540;27;20055;-79
2022/06/04 12:19:01;;;;;;;6.35;2.83;;;23.50;99.90;;;;;;5102712;27;20036;-81
2022/06/04 12:24:26;;;;;;;4.20;3.17;;;23.50;99.90;;;;;;5105361;27;20533;-81
2022/06/04 12:27:24;;;;;;;5.15;2.65;;;23.50;99.90;;;;;;5084775;27;20052;-80
2022/06/04 12:29:56;;;;;;;6.90;3.25;;;23.60;99.90;;;;;;5102128;27;20576;-80
2022/06/04 12:32:24;;;;;;;3.70;2.72;;;23.60;99.90;;;;;;5103160;27;20050;-80
2022/06/04 12:35:04;;;;;;;4.90;3.35;;;23.60;99.90;;;;;;5101969;27;20051;-81
2022/06/04 12:37:36;;;;;;;6.80;3.33;;;23.70;99.90;;;;;;5088018;27;20048;-81
2022/06/04 12:40:28;;;;;;;5.72;2.95;;;23.80;99.90;;;;;;5099836;27;20144;-81
2022/06/04 12:43:30;;;;;;;4.07;2.55;;;24.00;99.90;;;;;;5099643;27;20051;-81
2022/06/04 12:46:05;;;;;;;;;;;24.30;99.90;;;;;;5042063;27;20052;-81
2022/06/04 12:49:02;;;;;;;5.28;3.55;;;24.40;99.90;;;;;;5085881;27;19931;-81
2022/06/04 12:51:45;;;;;;;7.82;3.78;;;24.50;99.90;;;;;;5102769;27;20044;-81
2022/06/04 12:54:44;;;;;;;5.40;3.45;;;24.50;99.90;;;;;;5101329;27;20059;-81
2022/06/04 12:57:57;;;;;;;6.88;4.95;;;24.40;99.90;;;;;;5083010;27;20171;-78
2022/06/04 13:00:47;;;;;;;7.97;4.85;;;24.10;99.90;;;;;;5105010;27;20079;-78
2022/06/04 13:04:13;;;;;;;10.80;2.53;;;23.80;99.90;;;;;;5101812;27;20052;-81
2022/06/04 13:06:49;;;;;;;16.85;4.43;;;23.20;99.90;;;;;;5002887;28;20046;-85
2022/06/04 13:09:23;;;;;;;6.47;3.60;;;22.60;99.90;;;;;;5014426;28;20061;-79
2022/06/04 13:12:40;;;;;;;6.50;3.22;;;22.40;99.90;;;;;;5105187;27;20051;-80
2022/06/04 13:16:04;;;;;;;6.85;3.55;;;22.50;99.90;;;;;;5075849;27;20521;-83
2022/06/04 13:18:50;;;;;;;6.10;4.40;;;22.70;99.90;;;;;;5106570;27;20043;-82
2022/06/04 13:22:03;;;;;;;4.95;3.58;;;22.90;99.90;;;;;;5106209;27;20152;-82
2022/06/04 13:24:51;;;;;;;4.45;2.88;;;22.70;99.90;;;;;;5103678;27;20044;-81
2022/06/04 13:31:05;;;;;;;3.70;2.50;;;23.20;99.90;;;;;;5105925;27;20063;-82
2022/06/04 13:33:54;;;;;;;4.45;2.80;;;23.10;99.90;;;;;;5102102;27;20121;-82
2022/06/04 13:40:27;;;;;;;;;;;;;;;;;;;;;
2022/06/04 13:53:54;;;;;;;;;;;;;;;;;;;;;
2022/06/04 13:59:54;;;;;;;4.90;2.93;;;22.70;99.90;;;;;;4987648;28;20055;-80
2022/06/04 14:02:28;;;;;;;7.63;3.38;;;22.70;99.90;;;;;;5024975;27;20255;-79
2022/06/04 14:08:25;;;;;;;4.97;2.40;;;22.50;99.90;;;;;;5104203;27;20050;-82
2022/06/04 14:11:24;;;;;;;3.40;2.17;;;22.30;99.90;;;;;;5087081;27;20058;-81
2022/06/04 14:14:33;;;;;;;6.10;2.90;;;22.30;99.90;;;;;;5098121;27;20129;-80
2022/06/04 14:18:02;;;;;;;4.55;2.78;;;22.10;99.90;;;;;;5092843;27;20724;-80
2022/06/04 14:21:17;;;;;;;3.30;2.10;;;22.00;99.90;;;;;;5069046;27;20111;-80
2022/06/04 14:27:47;;;;;;;3.10;2.22;;;21.80;99.90;;;;;;5090596;27;20202;-81
2022/06/04 14:30:24;;;;;;;4.85;2.58;;;21.70;99.90;;;;;;5104435;27;20051;-81
2022/06/04 14:33:04;;;;;;;3.85;2.00;;;21.60;99.90;;;;;;5079372;27;20169;-81
2022/06/04 14:35:59;;;;;;;5.93;3.13;;;21.50;99.90;;;;;;5088191;27;20106;-81
2022/06/04 14:38:46;;;;;;;4.65;2.95;;;21.70;99.90;;;;;;5079013;27;20548;-81
2022/06/04 14:41:58;;;;;;;6.47;2.90;;;21.80;99.90;;;;;;5086645;27;20077;-81
2022/06/04 14:48:44;;;;;;;9.43;4.20;;;21.30;99.90;;;;;;5095159;27;20124;-82
2022/06/04 14:51:47;;;;;;;6.50;2.80;;;21.20;99.90;;;;;;5092061;27;20696;-82
2022/06/04 14:54:32;;;;;;;6.65;3.13;;;21.20;99.90;;;;;;5090491;27;20101;-82
2022/06/04 14:57:33;;;;;;;9.30;3.17;;;21.10;99.90;;;;;;5106614;27;20106;-82
2022/06/04 15:01:01;;;;;;;4.32;2.47;;;21.10;99.90;;;;;;5107756;27;20135;-82
2022/06/04 15:07:23;;;;;;;6.22;2.97;;;21.00;99.90;;;;;;5094324;27;20063;-82
2022/06/04 15:10:53;;;;;;;;;;;;;;;;;;;;;
2022/06/04 15:13:53;;;;;;;8.32;4.00;;;20.90;99.90;;;;;;5025499;28;40400;-82
2022/06/04 15:16:56;;;;;;;4.82;3.15;;;21.00;99.90;;;;;;4989377;28;20211;-81